sensor_id;sensor_type;location;lat;lon;timestamp;P1;durP1;ratioP1;P2;durP2;ratioP2
31537;SDS011;18147;51.952;6.146;2023-05-10T00:02:10;17.55;;;11.02;;
31537;SDS011;18147;51.952;6.146;2023-05-10T00:04:36;15.68;;;10.68;;
31537;SDS011;18147;51.952;6.146;2023-05-10T00:07:07;21.80;;;10.77;;
31537;SDS011;18147;51.952;6.146;2023-05-10T00:09:33;21.85;;;12.40;;
31537;SDS011;18147;51.952;6.146;2023-05-10T00:11:58;20.92;;;12.57;;
31537;SDS011;18147;51.952;6.146;2023-05-10T00:14:24;19.58;;;12.73;;
31537;SDS011;18147;51.952;6.146;2023-05-10T00:16:49;23.50;;;13.68;;
31537;SDS011;18147;51.952;6.146;2023-05-10T00:19:15;19.48;;;13.35;;
31537;SDS011;18147;51.952;6.146;2023-05-10T00:21:40;27.50;;;15.32;;
31537;SDS011;18147;51.952;6.146;2023-05-10T00:24:06;27.38;;;14.20;;
31537;SDS011;18147;51.952;6.146;2023-05-10T00:26:32;27.77;;;15.70;;
31537;SDS011;18147;51.952;6.146;2023-05-10T00:28:57;30.63;;;16.80;;
31537;SDS011;18147;51.952;6.146;2023-05-10T00:31:23;28.05;;;15.63;;
31537;SDS011;18147;51.952;6.146;2023-05-10T00:33:49;33.60;;;17.95;;
31537;SDS011;18147;51.952;6.146;2023-05-10T00:36:15;29.50;;;18.05;;
31537;SDS011;18147;51.952;6.146;2023-05-10T00:38:40;43.72;;;21.13;;
31537;SDS011;18147;51.952;6.146;2023-05-10T00:41:06;43.40;;;22.70;;
31537;SDS011;18147;51.952;6.146;2023-05-10T00:43:37;45.50;;;23.50;;
31537;SDS011;18147;51.952;6.146;2023-05-10T00:46:03;51.30;;;24.42;;
31537;SDS011;18147;51.952;6.146;2023-05-10T00:48:31;46.80;;;24.38;;
31537;SDS011;18147;51.952;6.146;2023-05-10T00:50:57;67.60;;;31.35;;
31537;SDS011;18147;51.952;6.146;2023-05-10T00:53:23;70.13;;;31.85;;
31537;SDS011;18147;51.952;6.146;2023-05-10T00:55:52;80.75;;;33.80;;
31537;SDS011;18147;51.952;6.146;2023-05-10T00:58:17;74.65;;;33.17;;
31537;SDS011;18147;51.952;6.146;2023-05-10T01:00:43;83.40;;;36.05;;
31537;SDS011;18147;51.952;6.146;2023-05-10T01:03:11;84.75;;;37.60;;
31537;SDS011;18147;51.952;6.146;2023-05-10T01:05:37;94.75;;;38.72;;
31537;SDS011;18147;51.952;6.146;2023-05-10T01:08:03;105.50;;;41.38;;
31537;SDS011;18147;51.952;6.146;2023-05-10T01:10:30;98.82;;;41.65;;
31537;SDS011;18147;51.952;6.146;2023-05-10T01:12:57;100.13;;;42.35;;
31537;SDS011;18147;51.952;6.146;2023-05-10T01:15:24;105.63;;;42.00;;
31537;SDS011;18147;51.952;6.146;2023-05-10T01:17:50;86.80;;;41.58;;
31537;SDS011;18147;51.952;6.146;2023-05-10T01:20:17;94.35;;;43.58;;
31537;SDS011;18147;51.952;6.146;2023-05-10T01:33:51;110.53;;;45.53;;
31537;SDS011;18147;51.952;6.146;2023-05-10T01:39:21;112.15;;;46.97;;
31537;SDS011;18147;51.952;6.146;2023-05-10T01:41:52;141.63;;;52.15;;
31537;SDS011;18147;51.952;6.146;2023-05-10T01:46:58;141.02;;;53.88;;
31537;SDS011;18147;51.952;6.146;2023-05-10T01:49:36;145.45;;;56.10;;
31537;SDS011;18147;51.952;6.146;2023-05-10T01:52:08;151.10;;;57.33;;
31537;SDS011;18147;51.952;6.146;2023-05-10T01:54:41;160.90;;;58.88;;
31537;SDS011;18147;51.952;6.146;2023-05-10T01:57:09;161.73;;;57.72;;
31537;SDS011;18147;51.952;6.146;2023-05-10T01:59:39;158.70;;;58.17;;
31537;SDS011;18147;51.952;6.146;2023-05-10T02:02:08;152.73;;;55.53;;
31537;SDS011;18147;51.952;6.146;2023-05-10T02:04:37;133.80;;;54.55;;
31537;SDS011;18147;51.952;6.146;2023-05-10T02:07:06;140.85;;;54.63;;
31537;SDS011;18147;51.952;6.146;2023-05-10T02:09:35;158.00;;;56.67;;
31537;SDS011;18147;51.952;6.146;2023-05-10T02:12:02;158.88;;;58.33;;
31537;SDS011;18147;51.952;6.146;2023-05-10T02:14:32;143.75;;;55.47;;
31537;SDS011;18147;51.952;6.146;2023-05-10T02:17:02;171.60;;;57.45;;
31537;SDS011;18147;51.952;6.146;2023-05-10T02:19:32;148.03;;;57.33;;
31537;SDS011;18147;51.952;6.146;2023-05-10T02:22:02;136.93;;;54.67;;
31537;SDS011;18147;51.952;6.146;2023-05-10T02:24:32;158.43;;;55.60;;
31537;SDS011;18147;51.952;6.146;2023-05-10T02:27:00;147.43;;;55.90;;
31537;SDS011;18147;51.952;6.146;2023-05-10T02:29:28;147.85;;;55.35;;
31537;SDS011;18147;51.952;6.146;2023-05-10T02:31:55;144.48;;;56.45;;
31537;SDS011;18147;51.952;6.146;2023-05-10T02:34:22;141.38;;;53.60;;
31537;SDS011;18147;51.952;6.146;2023-05-10T02:36:50;136.00;;;53.17;;
31537;SDS011;18147;51.952;6.146;2023-05-10T02:39:18;149.93;;;55.50;;
31537;SDS011;18147;51.952;6.146;2023-05-10T02:41:44;131.20;;;51.90;;
31537;SDS011;18147;51.952;6.146;2023-05-10T02:44:12;136.40;;;51.95;;
31537;SDS011;18147;51.952;6.146;2023-05-10T02:46:40;126.32;;;49.42;;
31537;SDS011;18147;51.952;6.146;2023-05-10T02:49:06;145.88;;;53.15;;
31537;SDS011;18147;51.952;6.146;2023-05-10T02:51:32;131.10;;;49.65;;
31537;SDS011;18147;51.952;6.146;2023-05-10T02:54:06;125.88;;;48.20;;
31537;SDS011;18147;51.952;6.146;2023-05-10T02:56:35;125.97;;;49.65;;
31537;SDS011;18147;51.952;6.146;2023-05-10T02:59:06;124.55;;;48.50;;
31537;SDS011;18147;51.952;6.146;2023-05-10T03:01:31;131.57;;;48.20;;
31537;SDS011;18147;51.952;6.146;2023-05-10T03:03:58;130.07;;;50.08;;
31537;SDS011;18147;51.952;6.146;2023-05-10T03:06:23;136.18;;;47.75;;
31537;SDS011;18147;51.952;6.146;2023-05-10T03:08:49;132.32;;;49.40;;
31537;SDS011;18147;51.952;6.146;2023-05-10T03:11:39;134.48;;;49.05;;
31537;SDS011;18147;51.952;6.146;2023-05-10T03:17:10;136.43;;;50.58;;
31537;SDS011;18147;51.952;6.146;2023-05-10T03:19:48;132.07;;;47.72;;
31537;SDS011;18147;51.952;6.146;2023-05-10T03:22:19;143.13;;;51.05;;
31537;SDS011;18147;51.952;6.146;2023-05-10T03:24:53;131.10;;;49.30;;
31537;SDS011;18147;51.952;6.146;2023-05-10T03:27:21;153.35;;;53.22;;
31537;SDS011;18147;51.952;6.146;2023-05-10T03:29:48;131.80;;;51.35;;
31537;SDS011;18147;51.952;6.146;2023-05-10T03:32:19;131.85;;;51.90;;
31537;SDS011;18147;51.952;6.146;2023-05-10T03:34:45;129.85;;;53.42;;
31537;SDS011;18147;51.952;6.146;2023-05-10T03:37:11;144.48;;;58.13;;
31537;SDS011;18147;51.952;6.146;2023-05-10T03:39:36;138.93;;;55.90;;
31537;SDS011;18147;51.952;6.146;2023-05-10T03:42:04;170.52;;;60.05;;
31537;SDS011;18147;51.952;6.146;2023-05-10T03:44:31;157.75;;;61.83;;
31537;SDS011;18147;51.952;6.146;2023-05-10T03:46:58;140.70;;;57.72;;
31537;SDS011;18147;51.952;6.146;2023-05-10T03:49:25;136.88;;;54.88;;
31537;SDS011;18147;51.952;6.146;2023-05-10T03:51:50;151.70;;;61.40;;
31537;SDS011;18147;51.952;6.146;2023-05-10T03:54:17;152.18;;;60.38;;
31537;SDS011;18147;51.952;6.146;2023-05-10T03:56:45;163.10;;;63.78;;
31537;SDS011;18147;51.952;6.146;2023-05-10T03:59:14;164.35;;;62.42;;
31537;SDS011;18147;51.952;6.146;2023-05-10T04:01:40;162.48;;;60.85;;
31537;SDS011;18147;51.952;6.146;2023-05-10T04:04:06;172.25;;;62.83;;
31537;SDS011;18147;51.952;6.146;2023-05-10T04:06:33;164.65;;;65.03;;
31537;SDS011;18147;51.952;6.146;2023-05-10T04:08:58;155.23;;;62.50;;
31537;SDS011;18147;51.952;6.146;2023-05-10T04:11:25;182.70;;;65.88;;
31537;SDS011;18147;51.952;6.146;2023-05-10T04:13:51;174.65;;;65.63;;
31537;SDS011;18147;51.952;6.146;2023-05-10T04:16:16;165.48;;;62.60;;
31537;SDS011;18147;51.952;6.146;2023-05-10T04:18:43;160.35;;;58.95;;
31537;SDS011;18147;51.952;6.146;2023-05-10T04:21:12;149.55;;;58.28;;
31537;SDS011;18147;51.952;6.146;2023-05-10T04:23:39;154.98;;;58.20;;
31537;SDS011;18147;51.952;6.146;2023-05-10T04:26:05;151.77;;;55.88;;
31537;SDS011;18147;51.952;6.146;2023-05-10T04:28:32;130.63;;;52.72;;
31537;SDS011;18147;51.952;6.146;2023-05-10T04:31:05;153.60;;;54.58;;
31537;SDS011;18147;51.952;6.146;2023-05-10T04:33:32;152.60;;;55.90;;
31537;SDS011;18147;51.952;6.146;2023-05-10T04:35:58;153.55;;;56.28;;
31537;SDS011;18147;51.952;6.146;2023-05-10T04:38:24;156.30;;;56.20;;
31537;SDS011;18147;51.952;6.146;2023-05-10T04:40:49;160.07;;;58.30;;
31537;SDS011;18147;51.952;6.146;2023-05-10T04:43:15;165.63;;;56.40;;
31537;SDS011;18147;51.952;6.146;2023-05-10T04:45:40;158.40;;;56.63;;
31537;SDS011;18147;51.952;6.146;2023-05-10T04:48:06;154.90;;;56.67;;
31537;SDS011;18147;51.952;6.146;2023-05-10T04:50:32;148.95;;;54.30;;
31537;SDS011;18147;51.952;6.146;2023-05-10T04:52:58;147.00;;;54.90;;
31537;SDS011;18147;51.952;6.146;2023-05-10T04:55:23;144.52;;;54.95;;
31537;SDS011;18147;51.952;6.146;2023-05-10T04:57:49;146.70;;;54.97;;
31537;SDS011;18147;51.952;6.146;2023-05-10T05:00:15;138.18;;;54.00;;
31537;SDS011;18147;51.952;6.146;2023-05-10T05:02:44;132.55;;;51.88;;
31537;SDS011;18147;51.952;6.146;2023-05-10T05:05:12;134.93;;;52.28;;
31537;SDS011;18147;51.952;6.146;2023-05-10T05:07:38;140.60;;;54.00;;
31537;SDS011;18147;51.952;6.146;2023-05-10T05:10:08;131.18;;;50.83;;
31537;SDS011;18147;51.952;6.146;2023-05-10T05:12:35;134.80;;;54.50;;
31537;SDS011;18147;51.952;6.146;2023-05-10T05:15:01;124.82;;;52.03;;
31537;SDS011;18147;51.952;6.146;2023-05-10T05:17:31;126.55;;;50.38;;
31537;SDS011;18147;51.952;6.146;2023-05-10T05:20:01;115.15;;;47.72;;
31537;SDS011;18147;51.952;6.146;2023-05-10T05:22:31;116.22;;;48.80;;
31537;SDS011;18147;51.952;6.146;2023-05-10T05:24:56;118.75;;;48.00;;
31537;SDS011;18147;51.952;6.146;2023-05-10T05:27:23;107.68;;;44.92;;
31537;SDS011;18147;51.952;6.146;2023-05-10T05:29:54;126.80;;;48.33;;
31537;SDS011;18147;51.952;6.146;2023-05-10T05:32:20;117.10;;;47.80;;
31537;SDS011;18147;51.952;6.146;2023-05-10T05:34:45;103.78;;;44.45;;
31537;SDS011;18147;51.952;6.146;2023-05-10T05:37:14;100.63;;;43.78;;
31537;SDS011;18147;51.952;6.146;2023-05-10T05:39:41;113.78;;;46.03;;
31537;SDS011;18147;51.952;6.146;2023-05-10T05:42:08;101.95;;;43.45;;
31537;SDS011;18147;51.952;6.146;2023-05-10T05:44:35;112.20;;;46.15;;
31537;SDS011;18147;51.952;6.146;2023-05-10T05:47:02;105.63;;;45.03;;
31537;SDS011;18147;51.952;6.146;2023-05-10T05:49:28;114.70;;;46.03;;
31537;SDS011;18147;51.952;6.146;2023-05-10T05:51:54;101.15;;;44.53;;
31537;SDS011;18147;51.952;6.146;2023-05-10T05:54:19;108.25;;;45.85;;
31537;SDS011;18147;51.952;6.146;2023-05-10T05:56:45;107.28;;;44.65;;
31537;SDS011;18147;51.952;6.146;2023-05-10T05:59:11;104.05;;;43.10;;
31537;SDS011;18147;51.952;6.146;2023-05-10T06:01:36;99.53;;;41.60;;
31537;SDS011;18147;51.952;6.146;2023-05-10T06:04:02;96.35;;;42.67;;
31537;SDS011;18147;51.952;6.146;2023-05-10T06:06:28;117.18;;;47.00;;
31537;SDS011;18147;51.952;6.146;2023-05-10T06:08:53;130.18;;;47.25;;
31537;SDS011;18147;51.952;6.146;2023-05-10T06:11:19;113.57;;;45.50;;
31537;SDS011;18147;51.952;6.146;2023-05-10T06:13:46;109.65;;;46.10;;
31537;SDS011;18147;51.952;6.146;2023-05-10T06:16:12;110.32;;;44.08;;
31537;SDS011;18147;51.952;6.146;2023-05-10T06:18:39;113.35;;;47.50;;
31537;SDS011;18147;51.952;6.146;2023-05-10T06:21:05;118.65;;;47.90;;
31537;SDS011;18147;51.952;6.146;2023-05-10T06:23:31;124.03;;;46.17;;
31537;SDS011;18147;51.952;6.146;2023-05-10T06:25:58;118.30;;;47.20;;
31537;SDS011;18147;51.952;6.146;2023-05-10T06:28:23;115.35;;;46.70;;
31537;SDS011;18147;51.952;6.146;2023-05-10T06:30:49;131.40;;;51.53;;
31537;SDS011;18147;51.952;6.146;2023-05-10T06:33:15;133.23;;;48.95;;
31537;SDS011;18147;51.952;6.146;2023-05-10T06:35:41;113.43;;;46.00;;
31537;SDS011;18147;51.952;6.146;2023-05-10T06:38:06;135.32;;;49.92;;
31537;SDS011;18147;51.952;6.146;2023-05-10T06:40:32;120.55;;;49.92;;
31537;SDS011;18147;51.952;6.146;2023-05-10T06:42:57;128.90;;;51.25;;
31537;SDS011;18147;51.952;6.146;2023-05-10T06:45:23;115.63;;;48.95;;
31537;SDS011;18147;51.952;6.146;2023-05-10T06:47:48;131.98;;;51.28;;
31537;SDS011;18147;51.952;6.146;2023-05-10T06:50:14;118.50;;;49.28;;
31537;SDS011;18147;51.952;6.146;2023-05-10T06:52:40;111.53;;;50.35;;
31537;SDS011;18147;51.952;6.146;2023-05-10T06:55:06;120.53;;;51.28;;
31537;SDS011;18147;51.952;6.146;2023-05-10T06:57:32;133.57;;;51.28;;
31537;SDS011;18147;51.952;6.146;2023-05-10T06:59:58;127.38;;;52.20;;
31537;SDS011;18147;51.952;6.146;2023-05-10T07:02:24;119.47;;;48.30;;
31537;SDS011;18147;51.952;6.146;2023-05-10T07:04:49;111.70;;;48.10;;
31537;SDS011;18147;51.952;6.146;2023-05-10T07:07:19;109.40;;;48.10;;
31537;SDS011;18147;51.952;6.146;2023-05-10T07:09:44;115.30;;;48.47;;
31537;SDS011;18147;51.952;6.146;2023-05-10T07:12:10;113.10;;;48.40;;
31537;SDS011;18147;51.952;6.146;2023-05-10T07:14:36;102.40;;;46.75;;
31537;SDS011;18147;51.952;6.146;2023-05-10T07:17:02;107.97;;;47.50;;
31537;SDS011;18147;51.952;6.146;2023-05-10T07:19:27;98.30;;;45.63;;
31537;SDS011;18147;51.952;6.146;2023-05-10T07:21:54;100.60;;;43.30;;
31537;SDS011;18147;51.952;6.146;2023-05-10T07:24:20;95.32;;;42.00;;
31537;SDS011;18147;51.952;6.146;2023-05-10T07:26:46;92.32;;;40.95;;
31537;SDS011;18147;51.952;6.146;2023-05-10T07:29:11;74.65;;;37.10;;
31537;SDS011;18147;51.952;6.146;2023-05-10T07:31:37;88.20;;;40.17;;
31537;SDS011;18147;51.952;6.146;2023-05-10T07:34:03;89.90;;;41.13;;
31537;SDS011;18147;51.952;6.146;2023-05-10T07:36:28;92.00;;;37.90;;
31537;SDS011;18147;51.952;6.146;2023-05-10T07:38:54;86.95;;;40.00;;
31537;SDS011;18147;51.952;6.146;2023-05-10T07:41:19;95.20;;;41.33;;
31537;SDS011;18147;51.952;6.146;2023-05-10T07:43:46;96.45;;;41.17;;
31537;SDS011;18147;51.952;6.146;2023-05-10T07:46:11;96.05;;;39.35;;
31537;SDS011;18147;51.952;6.146;2023-05-10T07:48:37;100.40;;;42.55;;
31537;SDS011;18147;51.952;6.146;2023-05-10T07:51:03;98.32;;;42.35;;
31537;SDS011;18147;51.952;6.146;2023-05-10T07:53:29;106.72;;;43.63;;
31537;SDS011;18147;51.952;6.146;2023-05-10T07:55:57;99.50;;;41.28;;
31537;SDS011;18147;51.952;6.146;2023-05-10T07:58:24;92.35;;;40.40;;
31537;SDS011;18147;51.952;6.146;2023-05-10T08:00:50;101.38;;;43.03;;
31537;SDS011;18147;51.952;6.146;2023-05-10T08:03:15;99.18;;;43.85;;
31537;SDS011;18147;51.952;6.146;2023-05-10T08:05:41;97.07;;;43.47;;
31537;SDS011;18147;51.952;6.146;2023-05-10T08:08:07;92.95;;;43.10;;
31537;SDS011;18147;51.952;6.146;2023-05-10T08:10:32;96.13;;;42.22;;
31537;SDS011;18147;51.952;6.146;2023-05-10T08:12:58;97.95;;;45.28;;
31537;SDS011;18147;51.952;6.146;2023-05-10T08:15:24;97.53;;;43.92;;
31537;SDS011;18147;51.952;6.146;2023-05-10T08:17:53;100.40;;;44.05;;
31537;SDS011;18147;51.952;6.146;2023-05-10T08:20:19;91.22;;;41.90;;
31537;SDS011;18147;51.952;6.146;2023-05-10T08:22:45;91.28;;;41.17;;
31537;SDS011;18147;51.952;6.146;2023-05-10T08:25:11;91.32;;;41.28;;
31537;SDS011;18147;51.952;6.146;2023-05-10T08:27:37;89.65;;;39.28;;
31537;SDS011;18147;51.952;6.146;2023-05-10T08:30:02;86.70;;;38.42;;
31537;SDS011;18147;51.952;6.146;2023-05-10T08:32:28;83.00;;;37.80;;
31537;SDS011;18147;51.952;6.146;2023-05-10T08:34:54;87.93;;;37.42;;
31537;SDS011;18147;51.952;6.146;2023-05-10T08:37:20;71.93;;;36.53;;
31537;SDS011;18147;51.952;6.146;2023-05-10T08:39:48;78.43;;;38.22;;
31537;SDS011;18147;51.952;6.146;2023-05-10T08:42:13;75.68;;;36.97;;
31537;SDS011;18147;51.952;6.146;2023-05-10T08:44:44;76.43;;;38.33;;
31537;SDS011;18147;51.952;6.146;2023-05-10T08:47:13;70.97;;;36.22;;
31537;SDS011;18147;51.952;6.146;2023-05-10T08:49:41;68.57;;;36.08;;
31537;SDS011;18147;51.952;6.146;2023-05-10T08:52:09;77.38;;;37.63;;
31537;SDS011;18147;51.952;6.146;2023-05-10T08:54:38;76.55;;;37.67;;
31537;SDS011;18147;51.952;6.146;2023-05-10T08:57:05;71.43;;;36.25;;
31537;SDS011;18147;51.952;6.146;2023-05-10T08:59:31;67.32;;;35.05;;
31537;SDS011;18147;51.952;6.146;2023-05-10T09:01:58;72.97;;;37.65;;
31537;SDS011;18147;51.952;6.146;2023-05-10T09:04:25;59.70;;;32.72;;
31537;SDS011;18147;51.952;6.146;2023-05-10T09:06:51;60.10;;;32.85;;
31537;SDS011;18147;51.952;6.146;2023-05-10T09:09:17;57.20;;;32.03;;
31537;SDS011;18147;51.952;6.146;2023-05-10T09:11:43;62.15;;;32.55;;
31537;SDS011;18147;51.952;6.146;2023-05-10T09:14:10;62.78;;;33.45;;
31537;SDS011;18147;51.952;6.146;2023-05-10T09:16:37;57.80;;;31.40;;
31537;SDS011;18147;51.952;6.146;2023-05-10T09:19:05;52.05;;;27.77;;
31537;SDS011;18147;51.952;6.146;2023-05-10T09:21:32;46.50;;;26.85;;
31537;SDS011;18147;51.952;6.146;2023-05-10T09:24:07;46.13;;;26.20;;
31537;SDS011;18147;51.952;6.146;2023-05-10T09:26:35;50.92;;;28.77;;
31537;SDS011;18147;51.952;6.146;2023-05-10T09:29:12;55.00;;;28.95;;
31537;SDS011;18147;51.952;6.146;2023-05-10T09:34:15;59.53;;;29.88;;
31537;SDS011;18147;51.952;6.146;2023-05-10T09:36:56;50.50;;;27.42;;
31537;SDS011;18147;51.952;6.146;2023-05-10T09:39:32;47.85;;;26.77;;
31537;SDS011;18147;51.952;6.146;2023-05-10T09:41:59;53.10;;;25.58;;
31537;SDS011;18147;51.952;6.146;2023-05-10T09:44:29;46.45;;;25.80;;
31537;SDS011;18147;51.952;6.146;2023-05-10T09:46:55;41.05;;;22.67;;
31537;SDS011;18147;51.952;6.146;2023-05-10T09:49:21;40.45;;;21.80;;
31537;SDS011;18147;51.952;6.146;2023-05-10T09:51:47;31.48;;;17.80;;
31537;SDS011;18147;51.952;6.146;2023-05-10T09:54:24;29.40;;;17.08;;
31537;SDS011;18147;51.952;6.146;2023-05-10T09:56:49;28.90;;;16.92;;
31537;SDS011;18147;51.952;6.146;2023-05-10T09:59:15;26.30;;;15.85;;
31537;SDS011;18147;51.952;6.146;2023-05-10T10:01:42;31.05;;;16.02;;
31537;SDS011;18147;51.952;6.146;2023-05-10T10:04:15;23.17;;;14.48;;
31537;SDS011;18147;51.952;6.146;2023-05-10T10:06:41;22.63;;;13.95;;
31537;SDS011;18147;51.952;6.146;2023-05-10T10:09:07;26.10;;;15.68;;
31537;SDS011;18147;51.952;6.146;2023-05-10T10:11:37;22.25;;;13.77;;
31537;SDS011;18147;51.952;6.146;2023-05-10T10:14:03;22.17;;;14.32;;
31537;SDS011;18147;51.952;6.146;2023-05-10T10:16:30;22.17;;;13.88;;
31537;SDS011;18147;51.952;6.146;2023-05-10T10:18:57;23.42;;;12.65;;
31537;SDS011;18147;51.952;6.146;2023-05-10T10:21:23;19.23;;;12.40;;
31537;SDS011;18147;51.952;6.146;2023-05-10T10:23:49;18.20;;;11.02;;
31537;SDS011;18147;51.952;6.146;2023-05-10T10:26:15;16.60;;;10.07;;
31537;SDS011;18147;51.952;6.146;2023-05-10T10:28:51;15.20;;;10.02;;
31537;SDS011;18147;51.952;6.146;2023-05-10T10:34:27;16.70;;;10.00;;
31537;SDS011;18147;51.952;6.146;2023-05-10T10:36:55;17.02;;;10.18;;
31537;SDS011;18147;51.952;6.146;2023-05-10T10:39:22;15.30;;;10.02;;
31537;SDS011;18147;51.952;6.146;2023-05-10T10:41:53;22.60;;;11.38;;
31537;SDS011;18147;51.952;6.146;2023-05-10T10:52:13;13.02;;;7.47;;
31537;SDS011;18147;51.952;6.146;2023-05-10T10:55:19;14.10;;;8.70;;
31537;SDS011;18147;51.952;6.146;2023-05-10T10:57:51;12.05;;;8.75;;
31537;SDS011;18147;51.952;6.146;2023-05-10T11:00:22;19.10;;;9.32;;
31537;SDS011;18147;51.952;6.146;2023-05-10T11:05:25;13.02;;;7.85;;
31537;SDS011;18147;51.952;6.146;2023-05-10T11:08:00;15.13;;;9.38;;
31537;SDS011;18147;51.952;6.146;2023-05-10T11:13:03;16.15;;;10.60;;
31537;SDS011;18147;51.952;6.146;2023-05-10T11:15:37;19.20;;;11.38;;
31537;SDS011;18147;51.952;6.146;2023-05-10T11:18:20;19.02;;;12.18;;
31537;SDS011;18147;51.952;6.146;2023-05-10T11:20:52;19.25;;;12.48;;
31537;SDS011;18147;51.952;6.146;2023-05-10T11:23:22;18.20;;;11.95;;
31537;SDS011;18147;51.952;6.146;2023-05-10T11:25:48;20.70;;;13.05;;
31537;SDS011;18147;51.952;6.146;2023-05-10T11:28:16;17.52;;;11.43;;
31537;SDS011;18147;51.952;6.146;2023-05-10T11:30:46;20.97;;;13.00;;
31537;SDS011;18147;51.952;6.146;2023-05-10T11:33:16;20.67;;;11.63;;
31537;SDS011;18147;51.952;6.146;2023-05-10T11:35:45;19.33;;;11.43;;
31537;SDS011;18147;51.952;6.146;2023-05-10T11:38:11;16.83;;;11.43;;
31537;SDS011;18147;51.952;6.146;2023-05-10T11:40:38;20.27;;;12.07;;
31537;SDS011;18147;51.952;6.146;2023-05-10T11:43:05;21.38;;;13.02;;
31537;SDS011;18147;51.952;6.146;2023-05-10T11:45:34;22.42;;;12.25;;
31537;SDS011;18147;51.952;6.146;2023-05-10T11:48:00;20.35;;;13.15;;
31537;SDS011;18147;51.952;6.146;2023-05-10T11:50:27;18.48;;;11.40;;
31537;SDS011;18147;51.952;6.146;2023-05-10T11:52:54;17.58;;;11.55;;
31537;SDS011;18147;51.952;6.146;2023-05-10T11:55:21;17.98;;;11.35;;
31537;SDS011;18147;51.952;6.146;2023-05-10T11:57:47;18.08;;;11.63;;
31537;SDS011;18147;51.952;6.146;2023-05-10T12:00:15;18.83;;;11.75;;
31537;SDS011;18147;51.952;6.146;2023-05-10T12:02:41;18.88;;;10.60;;
31537;SDS011;18147;51.952;6.146;2023-05-10T12:05:07;15.50;;;11.02;;
31537;SDS011;18147;51.952;6.146;2023-05-10T12:07:37;16.80;;;11.13;;
31537;SDS011;18147;51.952;6.146;2023-05-10T12:12:35;20.45;;;11.75;;
31537;SDS011;18147;51.952;6.146;2023-05-10T12:15:09;18.08;;;11.00;;
31537;SDS011;18147;51.952;6.146;2023-05-10T12:17:45;15.95;;;11.15;;
31537;SDS011;18147;51.952;6.146;2023-05-10T12:20:19;18.67;;;11.50;;
31537;SDS011;18147;51.952;6.146;2023-05-10T12:22:46;16.52;;;11.80;;
31537;SDS011;18147;51.952;6.146;2023-05-10T12:25:17;20.38;;;12.95;;
31537;SDS011;18147;51.952;6.146;2023-05-10T12:27:50;19.70;;;11.93;;
31537;SDS011;18147;51.952;6.146;2023-05-10T12:30:28;18.85;;;11.57;;
31537;SDS011;18147;51.952;6.146;2023-05-10T12:32:59;22.17;;;12.63;;
31537;SDS011;18147;51.952;6.146;2023-05-10T12:38:32;18.08;;;11.73;;
31537;SDS011;18147;51.952;6.146;2023-05-10T12:41:11;16.73;;;10.50;;
31537;SDS011;18147;51.952;6.146;2023-05-10T12:43:41;16.98;;;11.02;;
31537;SDS011;18147;51.952;6.146;2023-05-10T12:46:10;16.45;;;9.75;;
31537;SDS011;18147;51.952;6.146;2023-05-10T12:48:41;15.13;;;10.48;;
31537;SDS011;18147;51.952;6.146;2023-05-10T12:51:08;19.15;;;11.65;;
31537;SDS011;18147;51.952;6.146;2023-05-10T12:53:41;15.88;;;10.25;;
31537;SDS011;18147;51.952;6.146;2023-05-10T12:56:06;19.60;;;11.27;;
31537;SDS011;18147;51.952;6.146;2023-05-10T12:58:34;18.95;;;11.10;;
31537;SDS011;18147;51.952;6.146;2023-05-10T13:01:00;15.90;;;10.63;;
31537;SDS011;18147;51.952;6.146;2023-05-10T13:03:26;14.55;;;10.45;;
31537;SDS011;18147;51.952;6.146;2023-05-10T13:05:51;11.85;;;8.70;;
31537;SDS011;18147;51.952;6.146;2023-05-10T13:08:17;14.40;;;10.02;;
31537;SDS011;18147;51.952;6.146;2023-05-10T13:10:43;17.48;;;10.55;;
31537;SDS011;18147;51.952;6.146;2023-05-10T13:13:09;12.13;;;8.57;;
31537;SDS011;18147;51.952;6.146;2023-05-10T13:15:35;13.77;;;7.63;;
31537;SDS011;18147;51.952;6.146;2023-05-10T13:18:01;14.13;;;8.27;;
31537;SDS011;18147;51.952;6.146;2023-05-10T13:20:29;12.10;;;8.10;;
31537;SDS011;18147;51.952;6.146;2023-05-10T13:22:55;13.02;;;8.40;;
31537;SDS011;18147;51.952;6.146;2023-05-10T13:25:21;12.57;;;7.85;;
31537;SDS011;18147;51.952;6.146;2023-05-10T13:27:46;10.23;;;7.63;;
31537;SDS011;18147;51.952;6.146;2023-05-10T13:30:12;12.45;;;7.40;;
31537;SDS011;18147;51.952;6.146;2023-05-10T13:32:38;17.33;;;8.18;;
31537;SDS011;18147;51.952;6.146;2023-05-10T13:35:04;15.23;;;7.78;;
31537;SDS011;18147;51.952;6.146;2023-05-10T13:37:31;12.20;;;7.75;;
31537;SDS011;18147;51.952;6.146;2023-05-10T13:40:00;12.10;;;7.57;;
31537;SDS011;18147;51.952;6.146;2023-05-10T13:42:26;12.40;;;7.80;;
31537;SDS011;18147;51.952;6.146;2023-05-10T13:44:52;12.15;;;7.88;;
31537;SDS011;18147;51.952;6.146;2023-05-10T13:47:17;13.20;;;8.48;;
31537;SDS011;18147;51.952;6.146;2023-05-10T13:49:43;13.05;;;8.57;;
31537;SDS011;18147;51.952;6.146;2023-05-10T13:52:09;16.58;;;10.27;;
31537;SDS011;18147;51.952;6.146;2023-05-10T13:54:36;14.38;;;9.40;;
31537;SDS011;18147;51.952;6.146;2023-05-10T13:57:03;15.05;;;9.23;;
31537;SDS011;18147;51.952;6.146;2023-05-10T13:59:30;17.23;;;9.77;;
31537;SDS011;18147;51.952;6.146;2023-05-10T14:01:57;14.55;;;9.35;;
31537;SDS011;18147;51.952;6.146;2023-05-10T14:04:23;11.85;;;9.20;;
31537;SDS011;18147;51.952;6.146;2023-05-10T14:06:49;12.43;;;9.20;;
31537;SDS011;18147;51.952;6.146;2023-05-10T14:09:16;17.10;;;9.98;;
31537;SDS011;18147;51.952;6.146;2023-05-10T14:11:42;12.60;;;8.43;;
31537;SDS011;18147;51.952;6.146;2023-05-10T14:14:10;12.30;;;8.90;;
31537;SDS011;18147;51.952;6.146;2023-05-10T14:16:40;16.85;;;9.80;;
31537;SDS011;18147;51.952;6.146;2023-05-10T14:19:08;12.80;;;9.48;;
31537;SDS011;18147;51.952;6.146;2023-05-10T14:21:35;13.63;;;9.30;;
31537;SDS011;18147;51.952;6.146;2023-05-10T14:24:00;24.85;;;10.32;;
31537;SDS011;18147;51.952;6.146;2023-05-10T14:26:26;17.00;;;10.25;;
31537;SDS011;18147;51.952;6.146;2023-05-10T14:28:52;16.05;;;10.05;;
31537;SDS011;18147;51.952;6.146;2023-05-10T14:31:18;16.63;;;10.57;;
31537;SDS011;18147;51.952;6.146;2023-05-10T14:33:45;17.00;;;11.52;;
31537;SDS011;18147;51.952;6.146;2023-05-10T14:36:11;17.20;;;11.45;;
31537;SDS011;18147;51.952;6.146;2023-05-10T14:38:37;22.75;;;12.93;;
31537;SDS011;18147;51.952;6.146;2023-05-10T14:41:03;18.52;;;12.48;;
31537;SDS011;18147;51.952;6.146;2023-05-10T14:43:31;17.38;;;11.63;;
31537;SDS011;18147;51.952;6.146;2023-05-10T14:45:57;18.60;;;11.25;;
31537;SDS011;18147;51.952;6.146;2023-05-10T14:48:23;17.42;;;12.00;;
31537;SDS011;18147;51.952;6.146;2023-05-10T14:50:49;17.20;;;11.27;;
31537;SDS011;18147;51.952;6.146;2023-05-10T14:53:15;18.30;;;10.65;;
31537;SDS011;18147;51.952;6.146;2023-05-10T14:55:41;14.80;;;10.98;;
31537;SDS011;18147;51.952;6.146;2023-05-10T14:58:07;16.52;;;11.85;;
31537;SDS011;18147;51.952;6.146;2023-05-10T15:00:32;13.70;;;11.07;;
31537;SDS011;18147;51.952;6.146;2023-05-10T15:02:58;17.13;;;11.35;;
31537;SDS011;18147;51.952;6.146;2023-05-10T15:05:23;13.68;;;11.75;;